Time;durP1;ratioP1;P1;durP2;ratioP2;P2;SDS_P1;SDS_P2;PMS_P1;PMS_P2;Temp;Humidity;BMP_temperature;BMP_pressure;BME280_temperature;BME280_humidity;BME280_pressure;Samples;Min_cycle;Max_cycle;Signal;HPM_P1;HPM_P2
2024/02/11 00:01:54;;;;;;;0.77;0.57;;;;;;;;;;5030244;28;20033;-82
2024/02/11 00:04:24;;;;;;;0.47;0.43;;;;;;;;;;5034050;28;20120;-82
2024/02/11 00:06:50;;;;;;;0.25;0.13;;;;;;;;;;5028670;28;20045;-82
2024/02/11 00:09:20;;;;;;;0.20;0.10;;;;;;;;;;5032042;28;20041;-82
2024/02/11 00:11:51;;;;;;;0.20;0.10;;;;;;;;;;5033529;28;20120;-83
2024/02/11 00:14:20;;;;;;;0.20;0.20;;;;;;;;;;5040504;28;20120;-81
2024/02/11 00:16:46;;;;;;;0.22;0.20;;;;;;;;;;5025891;28;20059;-82
2024/02/11 00:19:12;;;;;;;0.20;0.10;;;;;;;;;;5035277;28;20244;-82
2024/02/11 00:21:38;;;;;;;0.20;0.10;;;;;;;;;;5030911;28;20056;-83
2024/02/11 00:24:04;;;;;;;0.30;0.20;;;;;;;;;;5044395;23;20098;-84
2024/02/11 00:26:30;;;;;;;0.20;0.17;;;;;;;;;;5041119;28;20585;-84
2024/02/11 00:28:57;;;;;;;0.22;0.15;;;;;;;;;;5031762;28;20048;-82
2024/02/11 00:31:26;;;;;;;0.95;0.70;;;;;;;;;;5032384;28;20400;-82
2024/02/11 00:33:54;;;;;;;0.20;0.10;;;;;;;;;;5063109;28;20037;-82
2024/02/11 00:36:20;;;;;;;0.25;0.20;;;;;;;;;;5009900;28;20126;-82
2024/02/11 00:38:46;;;;;;;2.63;0.30;;;;;;;;;;5015409;28;20048;-82
2024/02/11 00:41:12;;;;;;;0.30;0.17;;;;;;;;;;5033175;28;20038;-82
2024/02/11 00:43:38;;;;;;;0.30;0.10;;;;;;;;;;5016912;28;20028;-85
2024/02/11 00:46:04;;;;;;;0.75;0.43;;;;;;;;;;5026675;28;20656;-83
2024/02/11 00:48:30;;;;;;;0.20;0.10;;;;;;;;;;5023114;28;20498;-85
2024/02/11 00:50:57;;;;;;;0.20;0.10;;;;;;;;;;5014576;28;20102;-83
2024/02/11 00:53:25;;;;;;;0.30;0.30;;;;;;;;;;5032808;28;20425;-84
2024/02/11 00:55:51;;;;;;;0.45;0.40;;;;;;;;;;5020302;28;20045;-83
2024/02/11 00:58:18;;;;;;;0.20;0.10;;;;;;;;;;5030595;28;20492;-82
2024/02/11 01:00:44;;;;;;;0.20;0.10;;;;;;;;;;5031573;28;20105;-82
2024/02/11 01:03:13;;;;;;;0.20;0.10;;;;;;;;;;5051354;28;20158;-83
2024/02/11 01:05:39;;;;;;;0.20;0.10;;;;;;;;;;5031559;28;20037;-85
2024/02/11 01:08:05;;;;;;;0.20;0.10;;;;;;;;;;5016788;28;20041;-82
2024/02/11 01:10:31;;;;;;;0.20;0.10;;;;;;;;;;5039098;28;20040;-84
2024/02/11 01:12:58;;;;;;;0.30;0.20;;;;;;;;;;5020066;28;20056;-82
2024/02/11 01:15:26;;;;;;;0.20;0.00;;;;;;;;;;5012172;28;20045;-83
2024/02/11 01:17:53;;;;;;;0.20;0.10;;;;;;;;;;5016035;28;20041;-84
2024/02/11 01:20:19;;;;;;;0.20;0.10;;;;;;;;;;5016836;28;20041;-84
2024/02/11 01:22:46;;;;;;;0.20;0.10;;;;;;;;;;5020693;28;20035;-83
2024/02/11 01:25:18;;;;;;;0.20;0.10;;;;;;;;;;5018998;28;20036;-82
2024/02/11 01:27:45;;;;;;;0.20;0.10;;;;;;;;;;5028662;28;20102;-83
2024/02/11 01:30:11;;;;;;;0.20;0.10;;;;;;;;;;5013446;28;20336;-84
2024/02/11 01:32:37;;;;;;;0.20;0.10;;;;;;;;;;5028403;28;20050;-82
2024/02/11 01:35:03;;;;;;;0.20;0.10;;;;;;;;;;5030515;28;20393;-84
2024/02/11 01:37:29;;;;;;;0.20;0.00;;;;;;;;;;5016821;28;20511;-83
2024/02/11 01:39:55;;;;;;;0.20;0.20;;;;;;;;;;5033184;28;20053;-83
2024/02/11 01:42:21;;;;;;;0.20;0.00;;;;;;;;;;5024815;28;20099;-83
2024/02/11 01:44:47;;;;;;;0.20;0.10;;;;;;;;;;5020824;28;20041;-82
2024/02/11 01:47:14;;;;;;;0.20;0.03;;;;;;;;;;5032436;28;20119;-83
2024/02/11 01:49:40;;;;;;;0.20;0.10;;;;;;;;;;5012793;28;20091;-83
2024/02/11 01:52:08;;;;;;;0.20;0.10;;;;;;;;;;5011969;28;20073;-85
2024/02/11 01:54:35;;;;;;;0.20;0.20;;;;;;;;;;5021848;28;20044;-83
2024/02/11 01:57:01;;;;;;;0.25;0.20;;;;;;;;;;5027128;28;20316;-83
2024/02/11 01:59:28;;;;;;;0.20;0.00;;;;;;;;;;5015936;28;20486;-86
2024/02/11 02:01:55;;;;;;;0.20;0.10;;;;;;;;;;5046548;28;20041;-84
2024/02/11 02:04:21;;;;;;;0.20;0.10;;;;;;;;;;5043738;28;20029;-83
2024/02/11 02:06:47;;;;;;;0.20;0.00;;;;;;;;;;5026115;28;20121;-83
2024/02/11 02:09:14;;;;;;;0.20;0.10;;;;;;;;;;5012878;28;20037;-83
2024/02/11 02:11:40;;;;;;;0.20;0.10;;;;;;;;;;5029111;28;20136;-82
2024/02/11 02:14:06;;;;;;;0.20;0.10;;;;;;;;;;5016170;28;20488;-83
2024/02/11 02:16:32;;;;;;;0.45;0.45;;;;;;;;;;5017845;28;20119;-83
2024/02/11 02:18:58;;;;;;;0.20;0.10;;;;;;;;;;5036706;28;20045;-84
2024/02/11 02:21:25;;;;;;;0.20;0.10;;;;;;;;;;5032260;28;20047;-82
2024/02/11 02:23:51;;;;;;;0.20;0.10;;;;;;;;;;5016208;28;20405;-83
2024/02/11 02:26:17;;;;;;;0.20;0.10;;;;;;;;;;5014799;28;20045;-82
2024/02/11 02:28:43;;;;;;;0.20;0.10;;;;;;;;;;5032946;28;20043;-82
2024/02/11 02:31:10;;;;;;;0.20;0.10;;;;;;;;;;5015501;28;20057;-82
2024/02/11 02:33:36;;;;;;;0.20;0.10;;;;;;;;;;5018689;28;20620;-83
2024/02/11 02:36:03;;;;;;;1.00;0.57;;;;;;;;;;5018676;28;20525;-82
2024/02/11 02:38:29;;;;;;;0.20;0.10;;;;;;;;;;5020389;28;20498;-81
2024/02/11 02:40:55;;;;;;;0.20;0.10;;;;;;;;;;5014162;28;20044;-83
2024/02/11 02:43:21;;;;;;;0.20;0.10;;;;;;;;;;5023529;28;20071;-82
2024/02/11 02:45:47;;;;;;;0.20;0.10;;;;;;;;;;5017379;28;20072;-82
2024/02/11 02:48:14;;;;;;;0.43;0.43;;;;;;;;;;5038432;28;20060;-82
2024/02/11 02:50:44;;;;;;;0.20;0.10;;;;;;;;;;5018944;28;20517;-84
2024/02/11 02:53:11;;;;;;;0.20;0.10;;;;;;;;;;5012299;28;20523;-82
2024/02/11 02:55:37;;;;;;;0.20;0.20;;;;;;;;;;5019774;28;20037;-83
2024/02/11 02:58:08;;;;;;;0.20;0.10;;;;;;;;;;5012133;28;20133;-83
2024/02/11 03:00:34;;;;;;;0.20;0.10;;;;;;;;;;5029477;28;20041;-83
2024/02/11 03:03:03;;;;;;;0.20;0.10;;;;;;;;;;5030574;28;20036;-82
2024/02/11 03:05:29;;;;;;;0.20;0.10;;;;;;;;;;5029018;28;20206;-83
2024/02/11 03:07:56;;;;;;;0.20;0.10;;;;;;;;;;5020399;28;20040;-83
2024/02/11 03:10:22;;;;;;;1.08;0.77;;;;;;;;;;5014855;28;20456;-82
2024/02/11 03:12:48;;;;;;;0.20;0.10;;;;;;;;;;5035148;28;20037;-82
2024/02/11 03:15:15;;;;;;;0.20;0.10;;;;;;;;;;5013351;28;20051;-82
2024/02/11 03:17:41;;;;;;;0.20;0.10;;;;;;;;;;5023119;28;20241;-82
2024/02/11 03:20:08;;;;;;;0.20;0.08;;;;;;;;;;5021977;28;20441;-82
2024/02/11 03:22:34;;;;;;;0.20;0.10;;;;;;;;;;5030958;28;20501;-83
2024/02/11 03:25:00;;;;;;;0.20;0.10;;;;;;;;;;5030807;28;20043;-82
2024/02/11 03:27:26;;;;;;;0.85;0.52;;;;;;;;;;5031473;28;20041;-83
2024/02/11 03:29:52;;;;;;;0.20;0.10;;;;;;;;;;5030080;28;20041;-82
2024/02/11 03:32:18;;;;;;;0.50;0.50;;;;;;;;;;5014668;28;20056;-82
2024/02/11 03:34:44;;;;;;;0.20;0.10;;;;;;;;;;5014385;28;20281;-83
2024/02/11 03:37:10;;;;;;;0.20;0.10;;;;;;;;;;5017490;28;20041;-83
2024/02/11 03:39:36;;;;;;;0.20;0.10;;;;;;;;;;5031831;28;20042;-83
2024/02/11 03:42:04;;;;;;;0.20;0.10;;;;;;;;;;5014360;28;20061;-82
2024/02/11 03:44:30;;;;;;;0.20;0.10;;;;;;;;;;5034511;28;20036;-82
2024/02/11 03:46:56;;;;;;;0.20;0.17;;;;;;;;;;5018339;28;20048;-83
2024/02/11 03:49:23;;;;;;;0.40;0.38;;;;;;;;;;5017529;28;20041;-83
2024/02/11 03:51:49;;;;;;;0.20;0.10;;;;;;;;;;5053554;28;20049;-83
2024/02/11 03:54:17;;;;;;;1.27;0.57;;;;;;;;;;5018971;28;20065;-82
2024/02/11 03:56:43;;;;;;;0.20;0.10;;;;;;;;;;5012683;28;20116;-82
2024/02/11 03:59:13;;;;;;;0.20;0.10;;;;;;;;;;5019307;28;20093;-83
2024/02/11 04:01:39;;;;;;;0.20;0.00;;;;;;;;;;5019823;28;20040;-82
2024/02/11 04:04:06;;;;;;;0.20;0.10;;;;;;;;;;5017726;28;20033;-83
2024/02/11 04:06:34;;;;;;;0.20;0.10;;;;;;;;;;5028509;28;20073;-82
2024/02/11 04:09:00;;;;;;;0.52;0.52;;;;;;;;;;5025589;28;20095;-83
2024/02/11 04:11:30;;;;;;;0.20;0.10;;;;;;;;;;5013669;28;20041;-83
2024/02/11 04:13:58;;;;;;;0.30;0.30;;;;;;;;;;5025182;28;20522;-84
2024/02/11 04:16:25;;;;;;;0.28;0.25;;;;;;;;;;5036227;28;20080;-84
2024/02/11 04:18:52;;;;;;;0.20;0.10;;;;;;;;;;5023183;28;20036;-83
2024/02/11 04:21:21;;;;;;;0.20;0.10;;;;;;;;;;5012990;28;20033;-82
2024/02/11 04:23:48;;;;;;;0.20;0.10;;;;;;;;;;5034069;28;20068;-82
2024/02/11 04:26:15;;;;;;;0.20;0.10;;;;;;;;;;5028188;28;20537;-82
2024/02/11 04:28:41;;;;;;;0.20;0.10;;;;;;;;;;5037507;28;20537;-82
2024/02/11 04:31:11;;;;;;;0.20;0.10;;;;;;;;;;5015274;28;20040;-83
2024/02/11 04:33:40;;;;;;;0.20;0.00;;;;;;;;;;5008328;28;20090;-84
2024/02/11 04:36:09;;;;;;;0.20;0.10;;;;;;;;;;5038144;28;20032;-85
2024/02/11 04:38:35;;;;;;;0.20;0.10;;;;;;;;;;5012346;28;20386;-83
2024/02/11 04:41:01;;;;;;;0.20;0.10;;;;;;;;;;5014619;28;20131;-83
2024/02/11 04:43:27;;;;;;;0.20;0.10;;;;;;;;;;5013495;28;20412;-84
2024/02/11 04:45:55;;;;;;;0.20;0.10;;;;;;;;;;5011060;28;20094;-84
2024/02/11 04:48:24;;;;;;;0.30;0.20;;;;;;;;;;5010533;28;20033;-83
2024/02/11 04:50:50;;;;;;;0.20;0.10;;;;;;;;;;5031469;28;20049;-83
2024/02/11 04:53:18;;;;;;;0.20;0.20;;;;;;;;;;5024164;28;20042;-82
2024/02/11 04:55:46;;;;;;;0.20;0.00;;;;;;;;;;5020014;28;20110;-82
2024/02/11 04:58:18;;;;;;;0.38;0.30;;;;;;;;;;5011778;28;20524;-81
2024/02/11 05:00:48;;;;;;;0.20;0.08;;;;;;;;;;5014008;28;20033;-83
2024/02/11 05:03:17;;;;;;;0.20;0.10;;;;;;;;;;5029050;28;20559;-82
2024/02/11 05:05:44;;;;;;;0.20;0.00;;;;;;;;;;5015173;28;20068;-83
2024/02/11 05:08:10;;;;;;;0.20;0.00;;;;;;;;;;5008383;28;20068;-84
2024/02/11 05:10:38;;;;;;;0.55;0.55;;;;;;;;;;5005701;28;20048;-83
2024/02/11 05:13:04;;;;;;;0.60;0.40;;;;;;;;;;5012273;28;20509;-83
2024/02/11 05:15:34;;;;;;;0.25;0.20;;;;;;;;;;5033485;28;20150;-83
2024/02/11 05:18:01;;;;;;;0.20;0.00;;;;;;;;;;5008326;28;20048;-82
2024/02/11 05:20:28;;;;;;;0.20;0.10;;;;;;;;;;5012014;28;20041;-84
2024/02/11 05:22:56;;;;;;;0.20;0.00;;;;;;;;;;5013801;28;20098;-82
2024/02/11 05:25:23;;;;;;;0.20;0.10;;;;;;;;;;5014428;28;20032;-83
2024/02/11 05:27:53;;;;;;;0.20;0.10;;;;;;;;;;5015615;28;20520;-82
2024/02/11 05:30:19;;;;;;;0.20;0.10;;;;;;;;;;5011657;28;20600;-83
2024/02/11 05:32:47;;;;;;;1.20;0.75;;;;;;;;;;5033872;28;20147;-82
2024/02/11 05:35:15;;;;;;;0.20;0.10;;;;;;;;;;5023731;28;20037;-83
2024/02/11 05:37:41;;;;;;;0.20;0.10;;;;;;;;;;5014553;28;20286;-82
2024/02/11 05:40:10;;;;;;;0.63;0.63;;;;;;;;;;5030172;28;20519;-82
2024/02/11 05:42:40;;;;;;;0.38;0.38;;;;;;;;;;5027454;28;20158;-82
2024/02/11 05:45:07;;;;;;;0.20;0.00;;;;;;;;;;5007553;28;20330;-82
2024/02/11 05:47:33;;;;;;;0.20;0.10;;;;;;;;;;5023950;28;20116;-82
2024/02/11 05:49:59;;;;;;;0.20;0.10;;;;;;;;;;5016198;28;20044;-82
2024/02/11 05:52:25;;;;;;;0.20;0.00;;;;;;;;;;5016306;28;20045;-82
2024/02/11 05:54:51;;;;;;;0.30;0.28;;;;;;;;;;5031539;28;20041;-82
2024/02/11 05:57:18;;;;;;;0.20;0.08;;;;;;;;;;5037468;28;20090;-83
2024/02/11 05:59:48;;;;;;;0.20;0.00;;;;;;;;;;5033132;28;20033;-82
2024/02/11 06:02:15;;;;;;;0.20;0.10;;;;;;;;;;5016809;28;20040;-83
2024/02/11 06:04:41;;;;;;;0.20;0.10;;;;;;;;;;5033688;28;20068;-82
2024/02/11 06:07:10;;;;;;;0.20;0.10;;;;;;;;;;5031229;28;20060;-82
2024/02/11 06:09:38;;;;;;;0.55;0.40;;;;;;;;;;5015394;28;20412;-82
2024/02/11 06:12:06;;;;;;;0.22;0.20;;;;;;;;;;5036971;28;20102;-84
2024/02/11 06:14:33;;;;;;;0.30;0.30;;;;;;;;;;5009155;28;20444;-82
2024/02/11 06:16:59;;;;;;;0.20;0.13;;;;;;;;;;5037565;28;20045;-83
2024/02/11 06:19:25;;;;;;;0.20;0.08;;;;;;;;;;5032976;28;20455;-83
2024/02/11 06:21:51;;;;;;;0.20;0.10;;;;;;;;;;5020650;28;20041;-82
2024/02/11 06:24:17;;;;;;;0.20;0.05;;;;;;;;;;5022297;23;20037;-84
2024/02/11 06:26:50;;;;;;;1.13;0.52;;;;;;;;;;4998884;28;20351;-84
2024/02/11 06:29:17;;;;;;;0.57;0.32;;;;;;;;;;5001728;28;20377;-82
2024/02/11 06:31:43;;;;;;;0.95;0.08;;;;;;;;;;5021144;28;20064;-83
2024/02/11 06:34:09;;;;;;;0.20;0.10;;;;;;;;;;5018926;28;20033;-84
2024/02/11 06:36:36;;;;;;;0.30;0.17;;;;;;;;;;4986912;28;20034;-82
2024/02/11 06:39:04;;;;;;;0.32;0.32;;;;;;;;;;5004896;28;20066;-82
2024/02/11 06:41:32;;;;;;;0.20;0.10;;;;;;;;;;4996062;28;20621;-84
2024/02/11 06:44:03;;;;;;;0.20;0.10;;;;;;;;;;4985906;28;20038;-83
2024/02/11 06:46:30;;;;;;;1.07;0.30;;;;;;;;;;5003420;28;20041;-82
2024/02/11 06:48:56;;;;;;;0.20;0.00;;;;;;;;;;4992243;28;20320;-83
2024/02/11 06:51:24;;;;;;;0.30;0.30;;;;;;;;;;5006367;28;20045;-83
2024/02/11 06:53:50;;;;;;;0.20;0.10;;;;;;;;;;5001193;28;20096;-83
2024/02/11 06:56:18;;;;;;;0.73;0.30;;;;;;;;;;5007654;28;20049;-83
2024/02/11 06:58:44;;;;;;;0.20;0.00;;;;;;;;;;4998774;28;20053;-83
2024/02/11 07:01:13;;;;;;;0.20;0.08;;;;;;;;;;5008797;28;20041;-82
2024/02/11 07:03:39;;;;;;;0.20;0.10;;;;;;;;;;5004535;28;20049;-84
2024/02/11 07:06:09;;;;;;;0.77;0.52;;;;;;;;;;5000886;28;20034;-83
2024/02/11 07:08:36;;;;;;;0.20;0.10;;;;;;;;;;4999934;28;20106;-83
2024/02/11 07:11:08;;;;;;;0.20;0.10;;;;;;;;;;5001372;28;20679;-84
2024/02/11 07:13:34;;;;;;;0.20;0.15;;;;;;;;;;5008519;28;20056;-84
2024/02/11 07:16:00;;;;;;;0.20;0.20;;;;;;;;;;5003122;28;20172;-83
2024/02/11 07:18:27;;;;;;;0.20;0.10;;;;;;;;;;5001135;28;20034;-84
2024/02/11 07:20:53;;;;;;;0.20;0.00;;;;;;;;;;5002568;28;20034;-83
2024/02/11 07:23:20;;;;;;;0.20;0.03;;;;;;;;;;4990928;28;20038;-83
2024/02/11 07:25:46;;;;;;;0.20;0.10;;;;;;;;;;5002599;28;21762;-84
2024/02/11 07:28:13;;;;;;;0.30;0.20;;;;;;;;;;5002128;28;20057;-82
2024/02/11 07:30:42;;;;;;;0.20;0.10;;;;;;;;;;5000615;28;20089;-83
2024/02/11 07:33:08;;;;;;;0.20;0.10;;;;;;;;;;5000478;28;20038;-83
2024/02/11 07:35:34;;;;;;;0.20;0.10;;;;;;;;;;5000589;28;20097;-82
2024/02/11 07:38:02;;;;;;;0.20;0.20;;;;;;;;;;5004602;28;20120;-84
2024/02/11 07:40:31;;;;;;;0.20;0.10;;;;;;;;;;5007846;28;20046;-82
2024/02/11 07:43:01;;;;;;;0.20;0.20;;;;;;;;;;5004702;28;20800;-82
2024/02/11 07:45:27;;;;;;;0.20;0.10;;;;;;;;;;5021769;28;20046;-84
2024/02/11 07:47:55;;;;;;;0.20;0.00;;;;;;;;;;5003663;28;20510;-82
2024/02/11 07:50:21;;;;;;;0.20;0.00;;;;;;;;;;5005480;28;20042;-83
2024/02/11 07:52:47;;;;;;;0.20;0.10;;;;;;;;;;4996692;28;20502;-83
2024/02/11 07:55:13;;;;;;;0.20;0.20;;;;;;;;;;5003520;28;20080;-83
2024/02/11 07:57:39;;;;;;;0.20;0.00;;;;;;;;;;5004049;28;20038;-83
2024/02/11 08:00:10;;;;;;;0.38;0.38;;;;;;;;;;4998644;28;20487;-81
2024/02/11 08:02:36;;;;;;;0.20;0.10;;;;;;;;;;4999267;28;20033;-83
2024/02/11 08:05:02;;;;;;;0.20;0.13;;;;;;;;;;5000612;28;20052;-84
2024/02/11 08:07:28;;;;;;;0.20;0.00;;;;;;;;;;4997046;28;20088;-82
2024/02/11 08:09:54;;;;;;;0.20;0.10;;;;;;;;;;5000414;28;20052;-83
2024/02/11 08:12:21;;;;;;;0.20;0.00;;;;;;;;;;5005461;28;20042;-82
2024/02/11 08:14:47;;;;;;;0.20;0.10;;;;;;;;;;5004124;28;20597;-82
2024/02/11 08:17:13;;;;;;;0.20;0.20;;;;;;;;;;4992464;28;20133;-83
2024/02/11 08:19:40;;;;;;;0.30;0.10;;;;;;;;;;5004121;28;20029;-83
2024/02/11 08:22:06;;;;;;;0.20;0.00;;;;;;;;;;4999373;28;20030;-83
2024/02/11 08:24:36;;;;;;;0.20;0.15;;;;;;;;;;5007627;28;20045;-82
2024/02/11 08:27:05;;;;;;;0.20;0.20;;;;;;;;;;5002447;28;20034;-81
2024/02/11 08:29:31;;;;;;;0.20;0.10;;;;;;;;;;5001916;28;20514;-86
2024/02/11 08:31:57;;;;;;;0.75;0.75;;;;;;;;;;5006640;28;20564;-83
2024/02/11 08:34:23;;;;;;;0.20;0.10;;;;;;;;;;5001582;28;20052;-82
2024/02/11 08:36:49;;;;;;;0.20;0.00;;;;;;;;;;5000523;28;20031;-83
2024/02/11 08:39:15;;;;;;;0.20;0.00;;;;;;;;;;5016833;28;20030;-83
2024/02/11 08:41:41;;;;;;;0.20;0.10;;;;;;;;;;5019102;28;20069;-84
2024/02/11 08:44:08;;;;;;;0.20;0.10;;;;;;;;;;5000577;28;20038;-82
2024/02/11 08:46:34;;;;;;;0.20;0.10;;;;;;;;;;5018714;28;20057;-82
2024/02/11 08:49:00;;;;;;;0.20;0.10;;;;;;;;;;5001561;28;20054;-82
2024/02/11 08:51:29;;;;;;;0.20;0.10;;;;;;;;;;4996849;28;20503;-83
2024/02/11 08:53:55;;;;;;;0.20;0.10;;;;;;;;;;4998630;28;20081;-82
2024/02/11 08:56:21;;;;;;;0.20;0.10;;;;;;;;;;5001821;28;20049;-83
2024/02/11 08:58:48;;;;;;;0.20;0.10;;;;;;;;;;4992079;28;20046;-84
2024/02/11 09:01:14;;;;;;;0.20;0.10;;;;;;;;;;5004402;28;20120;-83
2024/02/11 09:03:41;;;;;;;0.25;0.15;;;;;;;;;;5000926;28;20537;-83
2024/02/11 09:06:07;;;;;;;0.20;0.10;;;;;;;;;;4999617;28;20044;-82
2024/02/11 09:08:33;;;;;;;0.25;0.22;;;;;;;;;;4998927;28;20077;-83
2024/02/11 09:11:03;;;;;;;0.38;0.20;;;;;;;;;;4996686;28;20376;-82
2024/02/11 09:13:33;;;;;;;0.20;0.00;;;;;;;;;;5016103;28;20080;-82
2024/02/11 09:15:59;;;;;;;0.30;0.25;;;;;;;;;;4984593;28;20049;-82
2024/02/11 09:18:25;;;;;;;0.20;0.17;;;;;;;;;;4999766;28;20041;-82
2024/02/11 09:20:52;;;;;;;0.20;0.20;;;;;;;;;;4998481;28;20030;-83
2024/02/11 09:23:18;;;;;;;1.60;0.43;;;;;;;;;;5003695;28;20072;-83
2024/02/11 09:25:44;;;;;;;0.20;0.10;;;;;;;;;;5010999;28;20045;-83
2024/02/11 09:28:10;;;;;;;0.20;0.05;;;;;;;;;;4989799;28;20049;-83
2024/02/11 09:30:39;;;;;;;0.20;0.10;;;;;;;;;;5018063;28;20122;-83
2024/02/11 09:33:05;;;;;;;0.20;0.10;;;;;;;;;;5001017;28;20040;-81
2024/02/11 09:35:32;;;;;;;0.77;0.52;;;;;;;;;;5003178;28;20042;-83
2024/02/11 09:37:58;;;;;;;0.20;0.10;;;;;;;;;;5003394;28;20042;-83
2024/02/11 09:40:24;;;;;;;0.57;0.55;;;;;;;;;;5022285;28;20078;-84
2024/02/11 09:42:51;;;;;;;0.22;0.15;;;;;;;;;;5008420;28;20395;-84
2024/02/11 09:45:17;;;;;;;1.13;0.50;;;;;;;;;;5025337;28;20042;-83
2024/02/11 09:47:49;;;;;;;0.20;0.10;;;;;;;;;;5005828;28;20053;-83
2024/02/11 09:50:16;;;;;;;0.20;0.05;;;;;;;;;;5005109;28;20045;-84
2024/02/11 09:52:42;;;;;;;0.40;0.40;;;;;;;;;;5023611;28;20212;-83
2024/02/11 09:55:10;;;;;;;0.20;0.00;;;;;;;;;;5007907;28;20034;-84
2024/02/11 09:57:37;;;;;;;0.20;0.05;;;;;;;;;;5003147;28;20041;-84
2024/02/11 10:00:07;;;;;;;0.20;0.00;;;;;;;;;;5005225;28;20112;-83
2024/02/11 10:02:33;;;;;;;2.05;0.35;;;;;;;;;;5004815;28;20045;-84
2024/02/11 10:05:05;;;;;;;0.20;0.20;;;;;;;;;;5023473;28;20045;-84
2024/02/11 10:07:34;;;;;;;0.68;0.20;;;;;;;;;;5005963;28;20498;-84
2024/02/11 10:10:02;;;;;;;0.20;0.05;;;;;;;;;;5005184;28;20053;-84
2024/02/11 10:12:30;;;;;;;0.20;0.10;;;;;;;;;;5015062;28;20053;-84
2024/02/11 10:14:57;;;;;;;0.28;0.25;;;;;;;;;;5008290;28;20441;-83
2024/02/11 10:17:23;;;;;;;0.20;0.20;;;;;;;;;;5009052;28;20046;-84
2024/02/11 10:19:53;;;;;;;0.30;0.30;;;;;;;;;;5007507;28;20034;-83
2024/02/11 10:22:21;;;;;;;0.20;0.10;;;;;;;;;;5011009;28;20037;-82
2024/02/11 10:24:51;;;;;;;0.57;0.45;;;;;;;;;;5007599;28;20038;-84
2024/02/11 10:27:18;;;;;;;0.20;0.15;;;;;;;;;;5006154;28;20081;-84
2024/02/11 10:29:44;;;;;;;0.20;0.10;;;;;;;;;;4988474;28;20092;-84
2024/02/11 10:32:14;;;;;;;0.20;0.20;;;;;;;;;;5027417;28;20022;-85
2024/02/11 10:34:44;;;;;;;0.20;0.20;;;;;;;;;;5008691;28;20079;-85
2024/02/11 10:37:13;;;;;;;0.20;0.10;;;;;;;;;;5004394;28;20050;-85
2024/02/11 10:39:43;;;;;;;0.20;0.00;;;;;;;;;;5005356;28;20042;-84
2024/02/11 10:42:13;;;;;;;0.20;0.10;;;;;;;;;;5006567;28;20057;-85
2024/02/11 10:44:39;;;;;;;0.20;0.10;;;;;;;;;;5006545;28;20802;-85
2024/02/11 10:47:08;;;;;;;1.15;1.05;;;;;;;;;;5001920;28;20133;-86
2024/02/11 10:49:35;;;;;;;0.20;0.10;;;;;;;;;;5005399;28;20042;-84
2024/02/11 10:52:05;;;;;;;0.20;0.10;;;;;;;;;;5009011;28;20056;-85
2024/02/11 10:54:33;;;;;;;1.85;1.08;;;;;;;;;;5003789;28;20038;-85
2024/02/11 10:57:05;;;;;;;0.45;0.35;;;;;;;;;;4999256;28;20069;-85
2024/02/11 10:59:37;;;;;;;0.20;0.10;;;;;;;;;;5005399;28;20053;-85
2024/02/11 11:02:04;;;;;;;0.20;0.10;;;;;;;;;;4998563;28;20033;-84
2024/02/11 11:04:31;;;;;;;0.20;0.10;;;;;;;;;;5003781;28;20037;-83
2024/02/11 11:06:57;;;;;;;0.20;0.10;;;;;;;;;;4984408;28;20081;-85
2024/02/11 11:09:44;;;;;;;0.20;0.10;;;;;;;;;;4991951;28;20057;-84
2024/02/11 11:12:17;;;;;;;0.20;0.10;;;;;;;;;;4992320;28;20041;-86
2024/02/11 11:14:52;;;;;;;0.20;0.10;;;;;;;;;;4996391;28;20073;-85
2024/02/11 11:17:25;;;;;;;0.20;0.10;;;;;;;;;;4992215;28;20069;-88
2024/02/11 11:19:52;;;;;;;;;;;;;;;;;;4996852;28;20069;-85
2024/02/11 11:22:28;;;;;;;0.20;0.00;;;;;;;;;;4991350;28;20008;-84
2024/02/11 11:24:57;;;;;;;0.20;0.10;;;;;;;;;;4988671;28;20490;-84
2024/02/11 11:27:24;;;;;;;0.20;0.10;;;;;;;;;;4990316;28;20502;-83
2024/02/11 11:29:53;;;;;;;0.20;0.10;;;;;;;;;;4990473;28;20112;-86
2024/02/11 11:32:24;;;;;;;0.20;0.10;;;;;;;;;;4990369;28;20045;-86
2024/02/11 11:34:54;;;;;;;0.20;0.10;;;;;;;;;;5008158;28;20564;-84
2024/02/11 11:37:20;;;;;;;0.20;0.10;;;;;;;;;;4988786;28;20050;-84
2024/02/11 11:39:48;;;;;;;0.20;0.00;;;;;;;;;;4995293;28;20125;-83
2024/02/11 11:42:14;;;;;;;0.20;0.10;;;;;;;;;;4997056;28;20152;-87
2024/02/11 11:44:40;;;;;;;0.20;0.10;;;;;;;;;;4993610;28;20156;-85
2024/02/11 11:47:07;;;;;;;0.20;0.10;;;;;;;;;;4987548;28;20635;-83
2024/02/11 11:49:34;;;;;;;0.20;0.00;;;;;;;;;;4988706;28;20038;-87
2024/02/11 11:52:01;;;;;;;0.20;0.10;;;;;;;;;;4991111;28;20514;-85
2024/02/11 11:54:32;;;;;;;0.20;0.00;;;;;;;;;;4992141;28;20045;-84
2024/02/11 11:56:58;;;;;;;0.20;0.10;;;;;;;;;;4994196;28;20038;-87
2024/02/11 11:59:28;;;;;;;0.20;0.10;;;;;;;;;;4995500;28;20521;-85
2024/02/11 12:01:57;;;;;;;0.20;0.10;;;;;;;;;;4988888;28;20045;-85
2024/02/11 12:04:24;;;;;;;0.20;0.10;;;;;;;;;;4989836;28;20034;-85
2024/02/11 12:06:50;;;;;;;0.20;0.10;;;;;;;;;;4986110;28;20085;-85
2024/02/11 12:09:16;;;;;;;0.20;0.05;;;;;;;;;;4978644;28;20044;-86
2024/02/11 12:11:42;;;;;;;0.20;0.08;;;;;;;;;;4994092;28;20038;-87
2024/02/11 12:14:09;;;;;;;0.20;0.00;;;;;;;;;;4992614;28;20045;-88
2024/02/11 12:16:36;;;;;;;0.20;0.10;;;;;;;;;;4993716;28;20038;-89
2024/02/11 12:19:02;;;;;;;0.20;0.00;;;;;;;;;;4991671;28;20184;-87
2024/02/11 12:21:36;;;;;;;0.20;0.10;;;;;;;;;;4991185;28;20030;-86
2024/02/11 12:24:08;;;;;;;0.20;0.10;;;;;;;;;;4975955;28;20033;-89
2024/02/11 12:26:35;;;;;;;0.20;0.10;;;;;;;;;;4990737;28;20565;-90
2024/02/11 12:29:05;;;;;;;0.20;0.10;;;;;;;;;;4987341;28;20065;-88
2024/02/11 12:31:32;;;;;;;0.20;0.10;;;;;;;;;;4987628;28;20450;-87
2024/02/11 12:33:58;;;;;;;0.20;0.10;;;;;;;;;;4991598;28;20034;-87
2024/02/11 12:36:43;;;;;;;0.20;0.00;;;;;;;;;;4993573;28;20045;-86
2024/02/11 12:39:10;;;;;;;0.20;0.10;;;;;;;;;;4990267;28;20069;-88
2024/02/11 12:41:56;;;;;;;0.20;0.10;;;;;;;;;;5001987;28;20524;-86
2024/02/11 12:44:28;;;;;;;0.20;0.00;;;;;;;;;;4998374;28;20045;-86
2024/02/11 12:46:55;;;;;;;0.20;0.05;;;;;;;;;;4989949;28;20050;-89
2024/02/11 12:49:22;;;;;;;0.20;0.10;;;;;;;;;;4975778;28;20577;-85
2024/02/11 12:51:49;;;;;;;0.20;0.00;;;;;;;;;;4991638;28;20041;-86
2024/02/11 12:54:31;;;;;;;;;;;;;;;;;;;;;
2024/02/11 13:00:48;;;;;;;0.20;0.10;;;;;;;;;;4966112;28;20038;-87
2024/02/11 13:03:17;;;;;;;0.20;0.10;;;;;;;;;;4967775;28;20046;-87
2024/02/11 13:06:19;;;;;;;0.20;0.10;;;;;;;;;;4975799;28;20088;-88
2024/02/11 13:09:09;;;;;;;0.20;0.00;;;;;;;;;;4991550;28;20045;-88
2024/02/11 13:11:48;;;;;;;0.20;0.00;;;;;;;;;;4993331;28;20391;-86
2024/02/11 13:14:32;;;;;;;0.45;0.45;;;;;;;;;;4991556;28;20089;-87
2024/02/11 13:16:59;;;;;;;0.20;0.10;;;;;;;;;;4992778;28;20088;-85
2024/02/11 13:19:47;;;;;;;0.20;0.00;;;;;;;;;;4975458;28;20135;-88
2024/02/11 13:22:27;;;;;;;0.20;0.05;;;;;;;;;;5004697;28;20050;-88
2024/02/11 13:25:02;;;;;;;0.20;0.17;;;;;;;;;;4970186;28;20069;-88
2024/02/11 13:27:47;;;;;;;0.20;0.00;;;;;;;;;;4990168;28;20046;-88
2024/02/11 13:30:43;;;;;;;0.20;0.10;;;;;;;;;;4992019;28;20050;-86
2024/02/11 13:33:34;;;;;;;0.20;0.00;;;;;;;;;;4974016;28;20089;-87
2024/02/11 13:36:10;;;;;;;0.20;0.10;;;;;;;;;;4545559;22;15079238;-86
2024/02/11 13:38:38;;;;;;;0.20;0.00;;;;;;;;;;4986262;28;20034;-87
2024/02/11 13:41:10;;;;;;;0.20;0.10;;;;;;;;;;4971256;28;20048;-87
2024/02/11 13:55:57;;;;;;;0.50;0.35;;;;;;;;;;4942910;28;20078;-88
2024/02/11 13:58:25;;;;;;;0.20;0.10;;;;;;;;;;5038503;28;20072;-88
2024/02/11 14:00:52;;;;;;;0.20;0.10;;;;;;;;;;5011618;28;20083;-85
2024/02/11 14:06:14;;;;;;;0.20;0.10;;;;;;;;;;5085739;23;20112;-85
2024/02/11 14:08:58;;;;;;;0.20;0.10;;;;;;;;;;5014455;28;20049;-88
2024/02/11 14:11:46;;;;;;;0.20;0.10;;;;;;;;;;5011103;28;20045;-87
2024/02/11 14:17:19;;;;;;;0.20;0.10;;;;;;;;;;5121352;22;20045;-85
2024/02/11 14:20:24;;;;;;;0.20;0.20;;;;;;;;;;5027603;28;20063;-87
2024/02/11 14:23:35;;;;;;;;;;;;;;;;;;;;;
2024/02/11 14:28:47;;;;;;;0.20;0.20;;;;;;;;;;5024478;28;20068;-85
2024/02/11 14:36:55;;;;;;;0.20;0.00;;;;;;;;;;4985934;28;20097;-86
2024/02/11 14:55:33;;;;;;;0.20;0.10;;;;;;;;;;4975027;28;20097;-85
2024/02/11 14:58:08;;;;;;;0.43;0.43;;;;;;;;;;5033075;28;20477;-87
2024/02/11 15:00:42;;;;;;;0.20;0.08;;;;;;;;;;5032239;28;20054;-87
2024/02/11 15:06:48;;;;;;;0.20;0.10;;;;;;;;;;5059591;28;20047;-88
2024/02/11 15:09:25;;;;;;;0.20;0.10;;;;;;;;;;5052900;28;20036;-86
2024/02/11 15:11:54;;;;;;;0.20;0.10;;;;;;;;;;5028998;28;20060;-85
2024/02/11 15:16:56;;;;;;;0.22;0.13;;;;;;;;;;5007952;28;20057;-85
2024/02/11 15:19:24;;;;;;;0.20;0.10;;;;;;;;;;4993716;28;20043;-86
2024/02/11 15:21:55;;;;;;;0.20;0.00;;;;;;;;;;4994075;28;20034;-85
2024/02/11 15:24:28;;;;;;;0.20;0.10;;;;;;;;;;5001025;28;20405;-85
2024/02/11 15:27:00;;;;;;;0.20;0.10;;;;;;;;;;5005750;28;20042;-84
2024/02/11 15:30:04;;;;;;;0.30;0.30;;;;;;;;;;5011803;28;20041;-86
2024/02/11 15:32:44;;;;;;;0.20;0.10;;;;;;;;;;4994173;28;20090;-86
2024/02/11 15:38:51;;;;;;;0.20;0.08;;;;;;;;;;4999092;28;20120;-87
2024/02/11 15:41:36;;;;;;;0.20;0.10;;;;;;;;;;4995135;28;20123;-87
2024/02/11 15:51:07;;;;;;;0.20;0.10;;;;;;;;;;4980006;28;20120;-88
2024/02/11 15:53:53;;;;;;;;;;;;;;;;;;;;;
2024/02/11 19:23:04;;;;;;;1.17;0.40;;;;;;;;;;5021834;28;20060;-88
2024/02/11 19:26:05;;;;;;;1.40;0.45;;;;;;;;;;5060480;23;20112;-87